This is the latest recevied weather packets stored in our database for station/object AE7VB. If no packets are shown the sender has not sent any weather packets the latest 10 day(s).
| Time | Temp. | Humidity | Pressure | Rain* | Wind** | Luminosity | Snow |
|---|---|---|---|---|---|---|---|
| 1778084763 | 16.67° C | 51% | 1020.9 hPa | 0 mm | - | - | - |
| 1778081124 | 13.89° C | 57% | 1020.8 hPa | 0 mm | - | - | - |
| 1778078088 | 11.67° C | 64% | 1020.9 hPa | 0 mm | - | - | - |
| 1778075684 | 9.44° C | 70% | 1021.2 hPa | 0 mm | - | - | - |
| 1778065942 | 7.78° C | 72% | 1019.9 hPa | 0 mm | - | - | - |
| 1778061071 | 7.78° C | 69% | 1019.7 hPa | 0 mm | - | - | - |
| 1778059269 | 8.33° C | 68% | 1019.7 hPa | 0 mm | - | - | - |
| 1778058668 | 8.33° C | 67% | 1019.7 hPa | 0 mm | - | - | - |
| 1778058067 | 8.33° C | 67% | 1019.4 hPa | 0 mm | - | - | - |
| 1778056265 | 8.89° C | 66% | 1019.5 hPa | 0 mm | - | - | - |
| 1778053860 | 8.89° C | 64% | 1019 hPa | 0 mm | - | - | - |
| 1778052596 | 9.44° C | 64% | 1018.6 hPa | 0 mm | - | - | - |
| 1778051995 | 9.44° C | 65% | 1018.6 hPa | 0 mm | - | - | - |
| 1778050794 | 8.89° C | 66% | 1018.5 hPa | 0 mm | - | - | - |
| 1778041113 | 13.89° C | 50% | 1017.6 hPa | 0 mm | - | - | - |
| 1778038077 | 15° C | 51% | 1016.9 hPa | 0 mm | - | - | - |
| 1778030740 | 20.56° C | 38% | 1015.8 hPa | 0 mm | - | - | - |
| 1778027135 | 21.11° C | 35% | 1015.8 hPa | 0 mm | - | - | - |
| 1778024098 | 21.11° C | 38% | 1016 hPa | 0 mm | - | - | - |
| 1778022232 | 20.56° C | 37% | 1016.3 hPa | 0 mm | - | - | - |
| 1778017424 | 20.56° C | 38% | 1017 hPa | 0 mm | - | - | - |
| 1778012614 | 20° C | 41% | 1017.4 hPa | 0 mm | - | - | - |
| 1778005339 | 18.33° C | 53% | 1017.5 hPa | 0 mm | - | - | - |
| 1777997462 | 13.89° C | 67% | 1017.1 hPa | 0 mm | - | - | - |
| 1777996861 | 13.33° C | 68% | 1016.8 hPa | 0 mm | - | - | - |
* Rain latest hour (hover to see other rain measurements)
** Current wind speed in m/s (hover to see current wind gust speed)